sensor_id;sensor_type;location;lat;lon;timestamp;P1;durP1;ratioP1;P2;durP2;ratioP2
51852;SDS011;37894;53.172;6.598;2024-02-21T00:02:19;14.40;;;4.22;;
51852;SDS011;37894;53.172;6.598;2024-02-21T00:04:45;17.60;;;4.75;;
51852;SDS011;37894;53.172;6.598;2024-02-21T00:07:11;15.57;;;4.22;;
51852;SDS011;37894;53.172;6.598;2024-02-21T00:09:36;15.70;;;4.90;;
51852;SDS011;37894;53.172;6.598;2024-02-21T00:12:02;17.00;;;4.57;;
51852;SDS011;37894;53.172;6.598;2024-02-21T00:14:30;20.48;;;4.38;;
51852;SDS011;37894;53.172;6.598;2024-02-21T00:16:56;18.02;;;4.32;;
51852;SDS011;37894;53.172;6.598;2024-02-21T00:19:21;20.77;;;4.25;;
51852;SDS011;37894;53.172;6.598;2024-02-21T00:21:47;13.40;;;4.07;;
51852;SDS011;37894;53.172;6.598;2024-02-21T00:24:13;20.02;;;4.97;;
51852;SDS011;37894;53.172;6.598;2024-02-21T00:26:39;14.50;;;4.13;;
51852;SDS011;37894;53.172;6.598;2024-02-21T00:29:05;15.27;;;4.40;;
51852;SDS011;37894;53.172;6.598;2024-02-21T00:31:31;17.98;;;5.38;;
51852;SDS011;37894;53.172;6.598;2024-02-21T00:33:57;18.83;;;4.60;;
51852;SDS011;37894;53.172;6.598;2024-02-21T00:36:23;17.67;;;5.13;;
51852;SDS011;37894;53.172;6.598;2024-02-21T00:38:49;19.25;;;6.05;;
51852;SDS011;37894;53.172;6.598;2024-02-21T00:41:15;13.32;;;4.05;;
51852;SDS011;37894;53.172;6.598;2024-02-21T00:43:41;20.35;;;5.00;;
51852;SDS011;37894;53.172;6.598;2024-02-21T00:46:07;21.30;;;5.03;;
51852;SDS011;37894;53.172;6.598;2024-02-21T00:48:33;20.77;;;5.32;;
51852;SDS011;37894;53.172;6.598;2024-02-21T00:50:59;24.10;;;5.28;;
51852;SDS011;37894;53.172;6.598;2024-02-21T00:53:25;20.10;;;5.15;;
51852;SDS011;37894;53.172;6.598;2024-02-21T00:55:51;16.98;;;5.07;;
51852;SDS011;37894;53.172;6.598;2024-02-21T00:58:16;22.13;;;5.65;;
51852;SDS011;37894;53.172;6.598;2024-02-21T01:00:43;25.13;;;6.22;;
51852;SDS011;37894;53.172;6.598;2024-02-21T01:03:08;25.05;;;5.65;;
51852;SDS011;37894;53.172;6.598;2024-02-21T01:05:34;17.08;;;5.15;;
51852;SDS011;37894;53.172;6.598;2024-02-21T01:08:00;29.15;;;6.13;;
51852;SDS011;37894;53.172;6.598;2024-02-21T01:10:26;21.25;;;5.90;;
51852;SDS011;37894;53.172;6.598;2024-02-21T01:12:52;21.60;;;5.70;;
51852;SDS011;37894;53.172;6.598;2024-02-21T01:15:18;16.88;;;5.60;;
51852;SDS011;37894;53.172;6.598;2024-02-21T01:17:44;19.08;;;6.82;;
51852;SDS011;37894;53.172;6.598;2024-02-21T01:20:09;16.40;;;6.75;;
51852;SDS011;37894;53.172;6.598;2024-02-21T01:22:35;17.83;;;6.32;;
51852;SDS011;37894;53.172;6.598;2024-02-21T01:25:02;27.98;;;6.97;;
51852;SDS011;37894;53.172;6.598;2024-02-21T01:27:27;21.60;;;6.85;;
51852;SDS011;37894;53.172;6.598;2024-02-21T01:29:54;28.55;;;7.90;;
51852;SDS011;37894;53.172;6.598;2024-02-21T01:32:20;20.02;;;7.38;;
51852;SDS011;37894;53.172;6.598;2024-02-21T01:34:49;22.48;;;6.95;;
51852;SDS011;37894;53.172;6.598;2024-02-21T01:37:15;25.17;;;7.75;;
51852;SDS011;37894;53.172;6.598;2024-02-21T01:39:41;24.35;;;7.90;;
51852;SDS011;37894;53.172;6.598;2024-02-21T01:42:07;25.30;;;8.52;;
51852;SDS011;37894;53.172;6.598;2024-02-21T01:44:34;27.48;;;7.88;;
51852;SDS011;37894;53.172;6.598;2024-02-21T01:47:00;18.85;;;7.25;;
51852;SDS011;37894;53.172;6.598;2024-02-21T01:49:25;20.63;;;7.88;;
51852;SDS011;37894;53.172;6.598;2024-02-21T01:51:52;24.13;;;7.78;;
51852;SDS011;37894;53.172;6.598;2024-02-21T01:54:18;32.58;;;8.73;;
51852;SDS011;37894;53.172;6.598;2024-02-21T01:56:44;22.50;;;8.48;;
51852;SDS011;37894;53.172;6.598;2024-02-21T01:59:11;23.85;;;8.23;;
51852;SDS011;37894;53.172;6.598;2024-02-21T02:01:38;23.10;;;8.07;;
51852;SDS011;37894;53.172;6.598;2024-02-21T02:04:05;18.52;;;7.72;;
51852;SDS011;37894;53.172;6.598;2024-02-21T02:06:31;18.35;;;7.00;;
51852;SDS011;37894;53.172;6.598;2024-02-21T02:08:59;18.02;;;6.85;;
51852;SDS011;37894;53.172;6.598;2024-02-21T02:11:25;26.60;;;8.93;;
51852;SDS011;37894;53.172;6.598;2024-02-21T02:13:51;14.48;;;7.82;;
51852;SDS011;37894;53.172;6.598;2024-02-21T02:16:17;18.05;;;7.55;;
51852;SDS011;37894;53.172;6.598;2024-02-21T02:18:43;20.58;;;8.75;;
51852;SDS011;37894;53.172;6.598;2024-02-21T02:21:10;29.17;;;8.13;;
51852;SDS011;37894;53.172;6.598;2024-02-21T02:23:57;20.98;;;8.43;;
51852;SDS011;37894;53.172;6.598;2024-02-21T02:26:23;24.88;;;7.30;;
51852;SDS011;37894;53.172;6.598;2024-02-21T02:28:49;15.40;;;6.78;;
51852;SDS011;37894;53.172;6.598;2024-02-21T02:31:15;19.60;;;7.63;;
51852;SDS011;37894;53.172;6.598;2024-02-21T02:33:44;20.48;;;6.68;;
51852;SDS011;37894;53.172;6.598;2024-02-21T02:36:10;17.27;;;6.72;;
51852;SDS011;37894;53.172;6.598;2024-02-21T02:38:36;16.92;;;6.88;;
51852;SDS011;37894;53.172;6.598;2024-02-21T02:41:02;23.73;;;6.65;;
51852;SDS011;37894;53.172;6.598;2024-02-21T02:43:28;18.55;;;6.60;;
51852;SDS011;37894;53.172;6.598;2024-02-21T02:45:54;19.98;;;6.95;;
51852;SDS011;37894;53.172;6.598;2024-02-21T02:48:20;17.77;;;6.72;;
51852;SDS011;37894;53.172;6.598;2024-02-21T02:50:47;24.58;;;6.78;;
51852;SDS011;37894;53.172;6.598;2024-02-21T02:53:12;22.35;;;7.30;;
51852;SDS011;37894;53.172;6.598;2024-02-21T02:55:38;24.63;;;7.10;;
51852;SDS011;37894;53.172;6.598;2024-02-21T02:58:04;16.15;;;6.93;;
51852;SDS011;37894;53.172;6.598;2024-02-21T03:00:30;18.67;;;7.13;;
51852;SDS011;37894;53.172;6.598;2024-02-21T03:02:56;25.42;;;7.20;;
51852;SDS011;37894;53.172;6.598;2024-02-21T03:05:21;28.52;;;7.70;;
51852;SDS011;37894;53.172;6.598;2024-02-21T03:07:47;21.65;;;7.30;;
51852;SDS011;37894;53.172;6.598;2024-02-21T03:10:16;30.48;;;7.78;;
51852;SDS011;37894;53.172;6.598;2024-02-21T03:12:42;22.17;;;7.50;;
51852;SDS011;37894;53.172;6.598;2024-02-21T03:15:08;26.25;;;7.97;;
51852;SDS011;37894;53.172;6.598;2024-02-21T03:17:34;22.48;;;8.45;;
51852;SDS011;37894;53.172;6.598;2024-02-21T03:20:01;23.67;;;8.38;;
51852;SDS011;37894;53.172;6.598;2024-02-21T03:22:30;25.45;;;7.97;;
51852;SDS011;37894;53.172;6.598;2024-02-21T03:24:59;19.77;;;7.90;;
51852;SDS011;37894;53.172;6.598;2024-02-21T03:27:25;35.42;;;9.65;;
51852;SDS011;37894;53.172;6.598;2024-02-21T03:29:50;26.83;;;8.52;;
51852;SDS011;37894;53.172;6.598;2024-02-21T03:32:17;22.63;;;8.70;;
51852;SDS011;37894;53.172;6.598;2024-02-21T03:34:42;21.98;;;8.25;;
51852;SDS011;37894;53.172;6.598;2024-02-21T03:37:08;31.05;;;8.73;;
51852;SDS011;37894;53.172;6.598;2024-02-21T03:39:34;30.25;;;8.90;;
51852;SDS011;37894;53.172;6.598;2024-02-21T03:42:00;30.08;;;8.05;;
51852;SDS011;37894;53.172;6.598;2024-02-21T03:44:29;30.95;;;8.82;;
51852;SDS011;37894;53.172;6.598;2024-02-21T03:46:56;24.60;;;7.72;;
51852;SDS011;37894;53.172;6.598;2024-02-21T03:49:22;25.50;;;8.05;;
51852;SDS011;37894;53.172;6.598;2024-02-21T03:51:47;21.02;;;7.97;;
51852;SDS011;37894;53.172;6.598;2024-02-21T03:54:13;34.88;;;9.50;;
51852;SDS011;37894;53.172;6.598;2024-02-21T03:56:39;21.55;;;7.80;;
51852;SDS011;37894;53.172;6.598;2024-02-21T03:59:06;23.25;;;8.32;;
51852;SDS011;37894;53.172;6.598;2024-02-21T04:01:32;29.05;;;9.48;;
51852;SDS011;37894;53.172;6.598;2024-02-21T04:04:01;31.17;;;8.90;;
51852;SDS011;37894;53.172;6.598;2024-02-21T04:06:27;36.13;;;9.27;;
51852;SDS011;37894;53.172;6.598;2024-02-21T04:08:53;26.83;;;8.40;;
51852;SDS011;37894;53.172;6.598;2024-02-21T04:11:19;22.65;;;8.35;;
51852;SDS011;37894;53.172;6.598;2024-02-21T04:13:45;27.83;;;8.50;;
51852;SDS011;37894;53.172;6.598;2024-02-21T04:16:14;25.65;;;8.13;;
51852;SDS011;37894;53.172;6.598;2024-02-21T04:18:40;28.95;;;8.13;;
51852;SDS011;37894;53.172;6.598;2024-02-21T04:21:06;25.17;;;7.75;;
51852;SDS011;37894;53.172;6.598;2024-02-21T04:23:32;23.88;;;9.13;;
51852;SDS011;37894;53.172;6.598;2024-02-21T04:25:58;29.38;;;8.88;;
51852;SDS011;37894;53.172;6.598;2024-02-21T04:28:24;24.63;;;8.63;;
51852;SDS011;37894;53.172;6.598;2024-02-21T04:30:49;21.15;;;8.50;;
51852;SDS011;37894;53.172;6.598;2024-02-21T04:33:15;29.98;;;8.88;;
51852;SDS011;37894;53.172;6.598;2024-02-21T04:35:41;25.50;;;8.63;;
51852;SDS011;37894;53.172;6.598;2024-02-21T04:38:07;31.55;;;8.20;;
51852;SDS011;37894;53.172;6.598;2024-02-21T04:40:33;26.70;;;9.13;;
51852;SDS011;37894;53.172;6.598;2024-02-21T04:42:58;28.23;;;8.38;;
51852;SDS011;37894;53.172;6.598;2024-02-21T04:45:24;24.35;;;8.00;;
51852;SDS011;37894;53.172;6.598;2024-02-21T04:47:51;30.58;;;8.43;;
51852;SDS011;37894;53.172;6.598;2024-02-21T04:50:16;29.10;;;8.63;;
51852;SDS011;37894;53.172;6.598;2024-02-21T04:52:42;29.42;;;8.32;;
51852;SDS011;37894;53.172;6.598;2024-02-21T04:55:08;24.17;;;8.30;;
51852;SDS011;37894;53.172;6.598;2024-02-21T04:57:34;25.98;;;8.32;;
51852;SDS011;37894;53.172;6.598;2024-02-21T05:00:00;23.67;;;8.15;;
51852;SDS011;37894;53.172;6.598;2024-02-21T05:02:26;26.40;;;8.35;;
51852;SDS011;37894;53.172;6.598;2024-02-21T05:04:52;24.55;;;7.97;;
51852;SDS011;37894;53.172;6.598;2024-02-21T05:07:18;29.75;;;7.82;;
51852;SDS011;37894;53.172;6.598;2024-02-21T05:09:45;22.23;;;7.32;;
51852;SDS011;37894;53.172;6.598;2024-02-21T05:12:11;29.88;;;8.15;;
51852;SDS011;37894;53.172;6.598;2024-02-21T05:14:37;23.08;;;7.75;;
51852;SDS011;37894;53.172;6.598;2024-02-21T05:17:03;23.98;;;7.63;;
51852;SDS011;37894;53.172;6.598;2024-02-21T05:19:29;27.42;;;8.07;;
51852;SDS011;37894;53.172;6.598;2024-02-21T05:21:55;23.58;;;8.05;;
51852;SDS011;37894;53.172;6.598;2024-02-21T05:24:21;28.00;;;7.05;;
51852;SDS011;37894;53.172;6.598;2024-02-21T05:26:47;28.08;;;7.75;;
51852;SDS011;37894;53.172;6.598;2024-02-21T05:29:13;28.73;;;7.45;;
51852;SDS011;37894;53.172;6.598;2024-02-21T05:31:55;27.75;;;7.93;;
51852;SDS011;37894;53.172;6.598;2024-02-21T05:34:22;28.90;;;8.48;;
51852;SDS011;37894;53.172;6.598;2024-02-21T05:36:48;26.90;;;7.25;;
51852;SDS011;37894;53.172;6.598;2024-02-21T05:39:15;33.35;;;8.23;;
51852;SDS011;37894;53.172;6.598;2024-02-21T05:41:41;24.55;;;7.45;;
51852;SDS011;37894;53.172;6.598;2024-02-21T05:44:07;23.02;;;7.25;;
51852;SDS011;37894;53.172;6.598;2024-02-21T05:46:33;27.02;;;7.15;;
51852;SDS011;37894;53.172;6.598;2024-02-21T05:49:00;25.35;;;8.57;;
51852;SDS011;37894;53.172;6.598;2024-02-21T05:51:26;27.33;;;7.30;;
51852;SDS011;37894;53.172;6.598;2024-02-21T05:53:51;22.38;;;6.70;;
51852;SDS011;37894;53.172;6.598;2024-02-21T05:56:17;19.67;;;7.18;;
51852;SDS011;37894;53.172;6.598;2024-02-21T05:58:44;28.85;;;7.63;;
51852;SDS011;37894;53.172;6.598;2024-02-21T06:01:10;21.42;;;6.50;;
51852;SDS011;37894;53.172;6.598;2024-02-21T06:03:36;26.92;;;7.38;;
51852;SDS011;37894;53.172;6.598;2024-02-21T06:06:02;34.92;;;7.63;;
51852;SDS011;37894;53.172;6.598;2024-02-21T06:08:30;25.58;;;7.00;;
51852;SDS011;37894;53.172;6.598;2024-02-21T06:10:56;23.75;;;7.65;;
51852;SDS011;37894;53.172;6.598;2024-02-21T06:13:23;22.00;;;7.55;;
51852;SDS011;37894;53.172;6.598;2024-02-21T06:15:49;19.60;;;7.10;;
51852;SDS011;37894;53.172;6.598;2024-02-21T06:18:19;19.67;;;7.35;;
51852;SDS011;37894;53.172;6.598;2024-02-21T06:20:45;23.83;;;8.30;;
51852;SDS011;37894;53.172;6.598;2024-02-21T06:23:11;30.95;;;8.70;;
51852;SDS011;37894;53.172;6.598;2024-02-21T06:25:38;30.23;;;8.10;;
51852;SDS011;37894;53.172;6.598;2024-02-21T06:28:04;33.70;;;8.48;;
51852;SDS011;37894;53.172;6.598;2024-02-21T06:30:30;25.08;;;7.68;;
51852;SDS011;37894;53.172;6.598;2024-02-21T06:32:56;23.70;;;7.80;;
51852;SDS011;37894;53.172;6.598;2024-02-21T06:35:22;29.92;;;7.65;;
51852;SDS011;37894;53.172;6.598;2024-02-21T06:37:51;32.78;;;8.27;;
51852;SDS011;37894;53.172;6.598;2024-02-21T06:40:21;27.40;;;8.15;;
51852;SDS011;37894;53.172;6.598;2024-02-21T06:42:47;29.85;;;9.80;;
51852;SDS011;37894;53.172;6.598;2024-02-21T06:45:14;24.05;;;8.90;;
51852;SDS011;37894;53.172;6.598;2024-02-21T06:47:40;23.80;;;9.05;;
51852;SDS011;37894;53.172;6.598;2024-02-21T06:50:06;28.25;;;9.25;;
51852;SDS011;37894;53.172;6.598;2024-02-21T06:52:33;31.63;;;9.23;;
51852;SDS011;37894;53.172;6.598;2024-02-21T06:54:59;31.30;;;9.95;;
51852;SDS011;37894;53.172;6.598;2024-02-21T06:57:25;30.08;;;10.35;;
51852;SDS011;37894;53.172;6.598;2024-02-21T06:59:51;24.75;;;9.35;;
51852;SDS011;37894;53.172;6.598;2024-02-21T07:02:17;32.53;;;10.88;;
51852;SDS011;37894;53.172;6.598;2024-02-21T07:04:43;36.58;;;11.10;;
51852;SDS011;37894;53.172;6.598;2024-02-21T07:07:09;34.67;;;12.20;;
51852;SDS011;37894;53.172;6.598;2024-02-21T07:09:35;37.45;;;13.50;;
51852;SDS011;37894;53.172;6.598;2024-02-21T07:12:01;41.92;;;13.57;;
51852;SDS011;37894;53.172;6.598;2024-02-21T07:14:28;43.67;;;13.75;;
51852;SDS011;37894;53.172;6.598;2024-02-21T07:16:54;50.92;;;15.95;;
51852;SDS011;37894;53.172;6.598;2024-02-21T07:19:22;46.08;;;16.40;;
51852;SDS011;37894;53.172;6.598;2024-02-21T07:21:48;49.05;;;15.80;;
51852;SDS011;37894;53.172;6.598;2024-02-21T07:24:14;44.30;;;15.75;;
51852;SDS011;37894;53.172;6.598;2024-02-21T07:26:43;55.70;;;15.80;;
51852;SDS011;37894;53.172;6.598;2024-02-21T07:29:09;50.95;;;15.10;;
51852;SDS011;37894;53.172;6.598;2024-02-21T07:31:38;44.13;;;14.27;;
51852;SDS011;37894;53.172;6.598;2024-02-21T07:34:08;52.47;;;14.07;;
51852;SDS011;37894;53.172;6.598;2024-02-21T07:36:34;49.38;;;13.25;;
51852;SDS011;37894;53.172;6.598;2024-02-21T07:39:00;39.47;;;12.55;;
51852;SDS011;37894;53.172;6.598;2024-02-21T07:41:25;41.58;;;12.23;;
51852;SDS011;37894;53.172;6.598;2024-02-21T07:43:51;51.88;;;12.90;;
51852;SDS011;37894;53.172;6.598;2024-02-21T07:46:18;33.78;;;10.63;;
51852;SDS011;37894;53.172;6.598;2024-02-21T07:48:47;31.23;;;8.43;;
51852;SDS011;37894;53.172;6.598;2024-02-21T07:51:12;28.48;;;8.52;;
51852;SDS011;37894;53.172;6.598;2024-02-21T07:53:38;30.77;;;8.90;;
51852;SDS011;37894;53.172;6.598;2024-02-21T07:56:09;33.60;;;7.68;;
51852;SDS011;37894;53.172;6.598;2024-02-21T07:58:39;28.70;;;8.18;;
51852;SDS011;37894;53.172;6.598;2024-02-21T08:01:05;25.90;;;8.35;;
51852;SDS011;37894;53.172;6.598;2024-02-21T08:03:31;30.52;;;7.38;;
51852;SDS011;37894;53.172;6.598;2024-02-21T08:05:57;25.83;;;6.70;;
51852;SDS011;37894;53.172;6.598;2024-02-21T08:08:23;21.90;;;7.00;;
51852;SDS011;37894;53.172;6.598;2024-02-21T08:10:50;25.05;;;6.80;;
51852;SDS011;37894;53.172;6.598;2024-02-21T08:13:16;19.80;;;6.82;;
51852;SDS011;37894;53.172;6.598;2024-02-21T08:15:42;25.65;;;7.45;;
51852;SDS011;37894;53.172;6.598;2024-02-21T08:18:08;17.38;;;6.47;;
51852;SDS011;37894;53.172;6.598;2024-02-21T08:20:34;16.63;;;6.20;;
51852;SDS011;37894;53.172;6.598;2024-02-21T08:23:00;19.95;;;6.90;;
51852;SDS011;37894;53.172;6.598;2024-02-21T08:25:26;21.48;;;7.75;;
51852;SDS011;37894;53.172;6.598;2024-02-21T08:27:55;23.08;;;7.07;;
51852;SDS011;37894;53.172;6.598;2024-02-21T08:30:23;17.63;;;6.70;;
51852;SDS011;37894;53.172;6.598;2024-02-21T08:32:49;22.00;;;6.65;;
51852;SDS011;37894;53.172;6.598;2024-02-21T08:35:15;14.63;;;6.05;;
51852;SDS011;37894;53.172;6.598;2024-02-21T08:37:43;14.38;;;5.28;;
51852;SDS011;37894;53.172;6.598;2024-02-21T08:40:09;19.92;;;5.93;;
51852;SDS011;37894;53.172;6.598;2024-02-21T08:42:35;18.70;;;5.82;;
51852;SDS011;37894;53.172;6.598;2024-02-21T08:45:02;19.92;;;6.00;;
51852;SDS011;37894;53.172;6.598;2024-02-21T08:47:28;16.48;;;6.28;;
51852;SDS011;37894;53.172;6.598;2024-02-21T08:49:54;19.55;;;7.05;;
51852;SDS011;37894;53.172;6.598;2024-02-21T08:52:20;21.35;;;7.60;;
51852;SDS011;37894;53.172;6.598;2024-02-21T08:54:46;15.68;;;6.95;;
51852;SDS011;37894;53.172;6.598;2024-02-21T08:57:12;21.65;;;8.35;;
51852;SDS011;37894;53.172;6.598;2024-02-21T08:59:39;20.65;;;8.27;;
51852;SDS011;37894;53.172;6.598;2024-02-21T09:02:05;24.10;;;9.68;;
51852;SDS011;37894;53.172;6.598;2024-02-21T09:04:32;20.35;;;10.23;;
51852;SDS011;37894;53.172;6.598;2024-02-21T09:06:58;23.33;;;11.35;;
51852;SDS011;37894;53.172;6.598;2024-02-21T09:09:24;25.48;;;11.30;;
51852;SDS011;37894;53.172;6.598;2024-02-21T09:11:50;30.00;;;12.00;;
51852;SDS011;37894;53.172;6.598;2024-02-21T09:14:17;30.70;;;12.10;;
51852;SDS011;37894;53.172;6.598;2024-02-21T09:16:43;28.25;;;12.75;;
51852;SDS011;37894;53.172;6.598;2024-02-21T09:19:09;35.67;;;13.60;;
51852;SDS011;37894;53.172;6.598;2024-02-21T09:21:36;25.73;;;13.07;;
51852;SDS011;37894;53.172;6.598;2024-02-21T09:24:03;22.75;;;11.90;;
51852;SDS011;37894;53.172;6.598;2024-02-21T09:26:30;27.88;;;13.20;;
51852;SDS011;37894;53.172;6.598;2024-02-21T09:28:56;33.70;;;13.77;;
51852;SDS011;37894;53.172;6.598;2024-02-21T09:31:22;32.25;;;14.00;;
51852;SDS011;37894;53.172;6.598;2024-02-21T09:33:48;28.80;;;14.07;;
51852;SDS011;37894;53.172;6.598;2024-02-21T09:36:14;25.38;;;13.50;;
51852;SDS011;37894;53.172;6.598;2024-02-21T09:38:40;32.35;;;13.75;;
51852;SDS011;37894;53.172;6.598;2024-02-21T09:43:40;29.88;;;14.15;;
51852;SDS011;37894;53.172;6.598;2024-02-21T09:46:07;24.75;;;13.35;;
51852;SDS011;37894;53.172;6.598;2024-02-21T09:51:41;23.10;;;12.93;;
51852;SDS011;37894;53.172;6.598;2024-02-21T09:54:08;27.63;;;13.65;;
51852;SDS011;37894;53.172;6.598;2024-02-21T09:56:34;27.95;;;13.55;;
51852;SDS011;37894;53.172;6.598;2024-02-21T09:59:01;28.63;;;14.60;;
51852;SDS011;37894;53.172;6.598;2024-02-21T10:01:31;29.45;;;13.07;;
51852;SDS011;37894;53.172;6.598;2024-02-21T10:03:57;30.67;;;13.75;;
51852;SDS011;37894;53.172;6.598;2024-02-21T10:06:24;23.35;;;12.93;;
51852;SDS011;37894;53.172;6.598;2024-02-21T10:08:53;29.67;;;14.52;;
51852;SDS011;37894;53.172;6.598;2024-02-21T10:11:23;24.58;;;14.05;;
51852;SDS011;37894;53.172;6.598;2024-02-21T10:13:49;28.75;;;14.95;;
51852;SDS011;37894;53.172;6.598;2024-02-21T10:16:16;27.23;;;15.05;;
51852;SDS011;37894;53.172;6.598;2024-02-21T10:18:42;27.52;;;14.45;;
51852;SDS011;37894;53.172;6.598;2024-02-21T10:21:08;25.30;;;15.18;;
51852;SDS011;37894;53.172;6.598;2024-02-21T10:23:48;32.28;;;16.27;;
51852;SDS011;37894;53.172;6.598;2024-02-21T10:26:14;28.63;;;15.98;;
51852;SDS011;37894;53.172;6.598;2024-02-21T10:28:41;26.75;;;14.48;;
51852;SDS011;37894;53.172;6.598;2024-02-21T10:31:11;28.25;;;16.60;;
51852;SDS011;37894;53.172;6.598;2024-02-21T10:33:53;29.65;;;15.93;;
51852;SDS011;37894;53.172;6.598;2024-02-21T10:36:22;27.00;;;15.52;;
51852;SDS011;37894;53.172;6.598;2024-02-21T10:38:49;26.52;;;15.30;;
51852;SDS011;37894;53.172;6.598;2024-02-21T10:41:15;34.85;;;16.15;;
51852;SDS011;37894;53.172;6.598;2024-02-21T10:43:42;29.25;;;16.38;;
51852;SDS011;37894;53.172;6.598;2024-02-21T10:46:11;29.98;;;16.90;;
51852;SDS011;37894;53.172;6.598;2024-02-21T10:48:46;27.80;;;16.33;;
51852;SDS011;37894;53.172;6.598;2024-02-21T10:51:17;30.10;;;16.98;;
51852;SDS011;37894;53.172;6.598;2024-02-21T10:56:33;30.73;;;16.15;;
51852;SDS011;37894;53.172;6.598;2024-02-21T10:59:03;26.63;;;15.93;;
51852;SDS011;37894;53.172;6.598;2024-02-21T11:01:30;26.48;;;15.15;;
51852;SDS011;37894;53.172;6.598;2024-02-21T11:03:58;36.20;;;16.05;;
51852;SDS011;37894;53.172;6.598;2024-02-21T11:06:26;26.00;;;15.93;;
51852;SDS011;37894;53.172;6.598;2024-02-21T11:09:00;23.27;;;15.52;;
51852;SDS011;37894;53.172;6.598;2024-02-21T11:11:49;29.52;;;15.32;;
51852;SDS011;37894;53.172;6.598;2024-02-21T11:14:19;29.40;;;15.10;;
51852;SDS011;37894;53.172;6.598;2024-02-21T11:16:46;27.17;;;14.48;;
51852;SDS011;37894;53.172;6.598;2024-02-21T11:21:45;22.67;;;14.27;;
51852;SDS011;37894;53.172;6.598;2024-02-21T11:24:13;30.75;;;15.38;;
51852;SDS011;37894;53.172;6.598;2024-02-21T11:26:39;21.48;;;13.60;;
51852;SDS011;37894;53.172;6.598;2024-02-21T11:29:08;29.50;;;14.23;;
51852;SDS011;37894;53.172;6.598;2024-02-21T11:31:42;27.08;;;14.40;;
51852;SDS011;37894;53.172;6.598;2024-02-21T11:34:16;23.88;;;12.90;;
51852;SDS011;37894;53.172;6.598;2024-02-21T11:36:50;22.77;;;13.10;;
51852;SDS011;37894;53.172;6.598;2024-02-21T11:39:18;25.50;;;12.70;;
51852;SDS011;37894;53.172;6.598;2024-02-21T11:42:09;18.90;;;12.88;;
51852;SDS011;37894;53.172;6.598;2024-02-21T11:44:34;21.98;;;12.40;;
51852;SDS011;37894;53.172;6.598;2024-02-21T11:47:03;20.33;;;11.93;;
51852;SDS011;37894;53.172;6.598;2024-02-21T11:49:30;16.85;;;11.25;;
51852;SDS011;37894;53.172;6.598;2024-02-21T11:52:02;20.13;;;11.98;;
51852;SDS011;37894;53.172;6.598;2024-02-21T11:54:32;20.05;;;11.57;;
51852;SDS011;37894;53.172;6.598;2024-02-21T11:56:58;20.25;;;11.10;;
51852;SDS011;37894;53.172;6.598;2024-02-21T11:59:32;24.08;;;10.95;;
51852;SDS011;37894;53.172;6.598;2024-02-21T12:01:59;19.55;;;10.32;;
51852;SDS011;37894;53.172;6.598;2024-02-21T12:04:26;24.17;;;12.18;;
51852;SDS011;37894;53.172;6.598;2024-02-21T12:06:55;17.40;;;9.55;;
51852;SDS011;37894;53.172;6.598;2024-02-21T12:09:23;18.45;;;9.90;;
51852;SDS011;37894;53.172;6.598;2024-02-21T12:11:59;18.15;;;10.32;;
51852;SDS011;37894;53.172;6.598;2024-02-21T12:14:30;17.88;;;8.82;;
51852;SDS011;37894;53.172;6.598;2024-02-21T12:16:57;18.23;;;10.10;;
51852;SDS011;37894;53.172;6.598;2024-02-21T12:19:24;18.63;;;9.60;;
51852;SDS011;37894;53.172;6.598;2024-02-21T12:21:49;21.67;;;9.23;;
51852;SDS011;37894;53.172;6.598;2024-02-21T12:24:22;15.43;;;9.25;;
51852;SDS011;37894;53.172;6.598;2024-02-21T12:26:49;15.90;;;9.18;;
51852;SDS011;37894;53.172;6.598;2024-02-21T12:29:17;13.57;;;8.85;;
51852;SDS011;37894;53.172;6.598;2024-02-21T12:31:43;16.88;;;8.73;;
51852;SDS011;37894;53.172;6.598;2024-02-21T12:34:10;14.40;;;8.38;;
51852;SDS011;37894;53.172;6.598;2024-02-21T12:36:40;12.82;;;8.30;;
51852;SDS011;37894;53.172;6.598;2024-02-21T12:39:10;16.17;;;9.00;;
51852;SDS011;37894;53.172;6.598;2024-02-21T12:41:36;15.32;;;7.90;;
51852;SDS011;37894;53.172;6.598;2024-02-21T12:44:09;15.70;;;8.73;;
51852;SDS011;37894;53.172;6.598;2024-02-21T12:46:39;13.52;;;8.20;;
51852;SDS011;37894;53.172;6.598;2024-02-21T12:49:05;14.85;;;8.10;;
51852;SDS011;37894;53.172;6.598;2024-02-21T12:51:33;16.73;;;8.40;;
51852;SDS011;37894;53.172;6.598;2024-02-21T12:54:00;13.75;;;8.07;;
51852;SDS011;37894;53.172;6.598;2024-02-21T12:56:26;16.27;;;9.43;;
51852;SDS011;37894;53.172;6.598;2024-02-21T12:58:52;14.90;;;8.05;;
51852;SDS011;37894;53.172;6.598;2024-02-21T13:01:18;15.13;;;8.57;;
51852;SDS011;37894;53.172;6.598;2024-02-21T13:03:44;15.45;;;7.50;;
51852;SDS011;37894;53.172;6.598;2024-02-21T13:06:11;13.07;;;7.35;;
51852;SDS011;37894;53.172;6.598;2024-02-21T13:08:38;13.13;;;6.80;;
51852;SDS011;37894;53.172;6.598;2024-02-21T13:11:04;12.80;;;7.57;;
51852;SDS011;37894;53.172;6.598;2024-02-21T13:13:30;18.35;;;8.13;;
51852;SDS011;37894;53.172;6.598;2024-02-21T13:15:59;13.30;;;7.80;;
51852;SDS011;37894;53.172;6.598;2024-02-21T13:18:25;15.23;;;7.57;;
51852;SDS011;37894;53.172;6.598;2024-02-21T13:20:51;12.15;;;7.10;;
51852;SDS011;37894;53.172;6.598;2024-02-21T13:23:17;12.63;;;7.25;;
51852;SDS011;37894;53.172;6.598;2024-02-21T13:25:43;11.63;;;7.45;;
51852;SDS011;37894;53.172;6.598;2024-02-21T13:28:10;11.45;;;6.93;;
51852;SDS011;37894;53.172;6.598;2024-02-21T13:30:36;10.90;;;6.78;;
51852;SDS011;37894;53.172;6.598;2024-02-21T13:33:02;10.48;;;6.05;;
51852;SDS011;37894;53.172;6.598;2024-02-21T13:35:28;12.32;;;6.43;;
51852;SDS011;37894;53.172;6.598;2024-02-21T13:37:54;10.38;;;6.03;;
51852;SDS011;37894;53.172;6.598;2024-02-21T13:40:20;10.68;;;6.38;;
51852;SDS011;37894;53.172;6.598;2024-02-21T13:42:45;11.02;;;6.40;;
51852;SDS011;37894;53.172;6.598;2024-02-21T13:45:12;10.38;;;6.45;;
51852;SDS011;37894;53.172;6.598;2024-02-21T13:47:37;12.05;;;5.78;;
51852;SDS011;37894;53.172;6.598;2024-02-21T13:50:04;9.20;;;6.15;;
51852;SDS011;37894;53.172;6.598;2024-02-21T13:52:34;10.77;;;5.93;;
51852;SDS011;37894;53.172;6.598;2024-02-21T13:55:00;9.27;;;5.57;;
51852;SDS011;37894;53.172;6.598;2024-02-21T13:57:26;9.00;;;5.45;;
51852;SDS011;37894;53.172;6.598;2024-02-21T13:59:51;9.07;;;5.47;;
51852;SDS011;37894;53.172;6.598;2024-02-21T14:02:17;9.02;;;5.72;;
51852;SDS011;37894;53.172;6.598;2024-02-21T14:04:43;9.27;;;6.05;;
51852;SDS011;37894;53.172;6.598;2024-02-21T14:07:09;9.80;;;6.03;;
51852;SDS011;37894;53.172;6.598;2024-02-21T14:09:35;10.02;;;5.63;;
51852;SDS011;37894;53.172;6.598;2024-02-21T14:12:01;9.27;;;6.10;;
51852;SDS011;37894;53.172;6.598;2024-02-21T14:14:27;10.30;;;5.78;;
51852;SDS011;37894;53.172;6.598;2024-02-21T14:16:53;9.93;;;5.82;;
51852;SDS011;37894;53.172;6.598;2024-02-21T14:19:21;8.32;;;5.07;;
51852;SDS011;37894;53.172;6.598;2024-02-21T14:21:47;10.52;;;5.68;;
51852;SDS011;37894;53.172;6.598;2024-02-21T14:24:13;8.60;;;5.53;;
51852;SDS011;37894;53.172;6.598;2024-02-21T14:26:39;10.40;;;5.60;;
51852;SDS011;37894;53.172;6.598;2024-02-21T14:29:06;10.88;;;5.90;;
51852;SDS011;37894;53.172;6.598;2024-02-21T14:31:32;8.82;;;6.03;;
51852;SDS011;37894;53.172;6.598;2024-02-21T14:33:58;11.88;;;5.70;;
51852;SDS011;37894;53.172;6.598;2024-02-21T14:36:24;12.65;;;6.13;;
51852;SDS011;37894;53.172;6.598;2024-02-21T14:38:50;11.05;;;6.53;;
51852;SDS011;37894;53.172;6.598;2024-02-21T14:41:17;14.68;;;6.30;;